sensor_id;sensor_type;location;lat;lon;timestamp;P1;durP1;ratioP1;P2;durP2;ratioP2
45274;SDS011;31019;43.780;25.948;2022-08-18T00:00:48;47.80;;;44.05;;
45274;SDS011;31019;43.780;25.948;2022-08-18T00:03:16;59.47;;;55.10;;
45274;SDS011;31019;43.780;25.948;2022-08-18T00:05:50;58.90;;;54.45;;
45274;SDS011;31019;43.780;25.948;2022-08-18T00:08:17;51.42;;;47.42;;
45274;SDS011;31019;43.780;25.948;2022-08-18T00:10:45;63.45;;;58.88;;
45274;SDS011;31019;43.780;25.948;2022-08-18T00:13:12;63.83;;;59.17;;
45274;SDS011;31019;43.780;25.948;2022-08-18T00:15:41;72.07;;;67.18;;
45274;SDS011;31019;43.780;25.948;2022-08-18T00:18:09;68.00;;;62.53;;
45274;SDS011;31019;43.780;25.948;2022-08-18T00:20:38;54.50;;;50.22;;
45274;SDS011;31019;43.780;25.948;2022-08-18T00:23:07;45.25;;;41.60;;
45274;SDS011;31019;43.780;25.948;2022-08-18T00:25:40;49.10;;;45.15;;
45274;SDS011;31019;43.780;25.948;2022-08-18T00:28:08;46.35;;;42.60;;
45274;SDS011;31019;43.780;25.948;2022-08-18T00:30:35;46.10;;;42.35;;
45274;SDS011;31019;43.780;25.948;2022-08-18T00:33:04;51.03;;;47.30;;
45274;SDS011;31019;43.780;25.948;2022-08-18T00:35:32;50.15;;;46.10;;
45274;SDS011;31019;43.780;25.948;2022-08-18T00:38:05;46.28;;;42.67;;
45274;SDS011;31019;43.780;25.948;2022-08-18T00:40:36;48.47;;;44.70;;
45274;SDS011;31019;43.780;25.948;2022-08-18T00:43:10;46.55;;;42.95;;
45274;SDS011;31019;43.780;25.948;2022-08-18T00:45:41;50.40;;;46.47;;
45274;SDS011;31019;43.780;25.948;2022-08-18T00:48:09;47.00;;;43.50;;
45274;SDS011;31019;43.780;25.948;2022-08-18T00:50:40;48.50;;;44.33;;
45274;SDS011;31019;43.780;25.948;2022-08-18T00:53:15;49.50;;;45.40;;
45274;SDS011;31019;43.780;25.948;2022-08-18T00:55:48;42.78;;;39.45;;
45274;SDS011;31019;43.780;25.948;2022-08-18T00:58:25;44.35;;;40.50;;
45274;SDS011;31019;43.780;25.948;2022-08-18T01:00:54;46.78;;;43.20;;
45274;SDS011;31019;43.780;25.948;2022-08-18T01:03:24;45.38;;;41.78;;
45274;SDS011;31019;43.780;25.948;2022-08-18T01:05:52;47.67;;;44.05;;
45274;SDS011;31019;43.780;25.948;2022-08-18T01:08:27;44.33;;;40.67;;
45274;SDS011;31019;43.780;25.948;2022-08-18T01:10:56;49.35;;;45.30;;
45274;SDS011;31019;43.780;25.948;2022-08-18T01:13:26;46.42;;;42.72;;
45274;SDS011;31019;43.780;25.948;2022-08-18T01:15:58;47.90;;;43.28;;
45274;SDS011;31019;43.780;25.948;2022-08-18T01:18:47;50.78;;;46.47;;
45274;SDS011;31019;43.780;25.948;2022-08-18T01:21:31;46.95;;;42.97;;
45274;SDS011;31019;43.780;25.948;2022-08-18T01:24:19;48.28;;;43.63;;
45274;SDS011;31019;43.780;25.948;2022-08-18T01:29:43;46.00;;;42.33;;
45274;SDS011;31019;43.780;25.948;2022-08-18T01:32:10;52.60;;;48.70;;
45274;SDS011;31019;43.780;25.948;2022-08-18T01:34:40;54.58;;;49.78;;
45274;SDS011;31019;43.780;25.948;2022-08-18T01:37:10;54.40;;;50.10;;
45274;SDS011;31019;43.780;25.948;2022-08-18T01:39:38;51.92;;;47.70;;
45274;SDS011;31019;43.780;25.948;2022-08-18T01:42:05;53.60;;;49.60;;
45274;SDS011;31019;43.780;25.948;2022-08-18T01:44:32;48.13;;;44.08;;
45274;SDS011;31019;43.780;25.948;2022-08-18T01:46:59;51.13;;;47.13;;
45274;SDS011;31019;43.780;25.948;2022-08-18T01:49:26;46.25;;;42.55;;
45274;SDS011;31019;43.780;25.948;2022-08-18T01:51:54;50.13;;;46.00;;
45274;SDS011;31019;43.780;25.948;2022-08-18T01:54:21;48.05;;;44.30;;
45274;SDS011;31019;43.780;25.948;2022-08-18T01:56:51;46.60;;;42.88;;
45274;SDS011;31019;43.780;25.948;2022-08-18T01:59:17;46.30;;;42.60;;
45274;SDS011;31019;43.780;25.948;2022-08-18T02:01:45;48.30;;;44.55;;
45274;SDS011;31019;43.780;25.948;2022-08-18T02:04:13;48.20;;;44.35;;
45274;SDS011;31019;43.780;25.948;2022-08-18T02:06:41;51.72;;;47.72;;
45274;SDS011;31019;43.780;25.948;2022-08-18T02:09:08;55.22;;;50.40;;
45274;SDS011;31019;43.780;25.948;2022-08-18T02:11:35;59.88;;;55.10;;
45274;SDS011;31019;43.780;25.948;2022-08-18T02:14:04;60.22;;;55.78;;
45274;SDS011;31019;43.780;25.948;2022-08-18T02:16:30;59.78;;;55.15;;
45274;SDS011;31019;43.780;25.948;2022-08-18T02:18:58;57.05;;;52.65;;
45274;SDS011;31019;43.780;25.948;2022-08-18T02:21:28;65.45;;;59.75;;
45274;SDS011;31019;43.780;25.948;2022-08-18T02:23:55;60.70;;;54.75;;
45274;SDS011;31019;43.780;25.948;2022-08-18T02:26:22;58.80;;;53.03;;
45274;SDS011;31019;43.780;25.948;2022-08-18T02:28:50;57.70;;;52.50;;
45274;SDS011;31019;43.780;25.948;2022-08-18T02:33:54;57.60;;;52.67;;
45274;SDS011;31019;43.780;25.948;2022-08-18T02:36:22;53.65;;;49.15;;
45274;SDS011;31019;43.780;25.948;2022-08-18T02:38:50;47.67;;;43.50;;
45274;SDS011;31019;43.780;25.948;2022-08-18T02:41:18;48.10;;;43.97;;
45274;SDS011;31019;43.780;25.948;2022-08-18T02:43:47;50.65;;;45.75;;
45274;SDS011;31019;43.780;25.948;2022-08-18T02:46:15;53.78;;;49.35;;
45274;SDS011;31019;43.780;25.948;2022-08-18T02:48:43;57.90;;;53.00;;
45274;SDS011;31019;43.780;25.948;2022-08-18T02:51:21;47.95;;;43.78;;
45274;SDS011;31019;43.780;25.948;2022-08-18T02:53:48;52.22;;;48.08;;
45274;SDS011;31019;43.780;25.948;2022-08-18T02:56:22;48.30;;;44.20;;
45274;SDS011;31019;43.780;25.948;2022-08-18T02:58:52;61.25;;;56.30;;
45274;SDS011;31019;43.780;25.948;2022-08-18T03:01:21;54.88;;;50.08;;
45274;SDS011;31019;43.780;25.948;2022-08-18T03:03:51;64.35;;;59.15;;
45274;SDS011;31019;43.780;25.948;2022-08-18T03:06:20;65.47;;;60.22;;
45274;SDS011;31019;43.780;25.948;2022-08-18T03:08:48;54.65;;;50.28;;
45274;SDS011;31019;43.780;25.948;2022-08-18T03:11:16;64.43;;;59.20;;
45274;SDS011;31019;43.780;25.948;2022-08-18T03:13:46;52.13;;;48.22;;
45274;SDS011;31019;43.780;25.948;2022-08-18T03:16:13;54.53;;;50.25;;
45274;SDS011;31019;43.780;25.948;2022-08-18T03:18:41;59.63;;;55.03;;
45274;SDS011;31019;43.780;25.948;2022-08-18T03:21:13;66.55;;;61.72;;
45274;SDS011;31019;43.780;25.948;2022-08-18T03:23:42;64.87;;;59.77;;
45274;SDS011;31019;43.780;25.948;2022-08-18T03:26:10;62.90;;;57.53;;
45274;SDS011;31019;43.780;25.948;2022-08-18T03:28:40;68.32;;;62.25;;
45274;SDS011;31019;43.780;25.948;2022-08-18T03:31:09;65.40;;;59.70;;
45274;SDS011;31019;43.780;25.948;2022-08-18T03:33:38;65.55;;;59.47;;
45274;SDS011;31019;43.780;25.948;2022-08-18T03:36:07;69.40;;;62.90;;
45274;SDS011;31019;43.780;25.948;2022-08-18T03:38:37;63.38;;;57.15;;
45274;SDS011;31019;43.780;25.948;2022-08-18T03:41:05;65.70;;;58.83;;
45274;SDS011;31019;43.780;25.948;2022-08-18T03:43:33;60.42;;;54.83;;
45274;SDS011;31019;43.780;25.948;2022-08-18T03:46:01;69.40;;;62.53;;
45274;SDS011;31019;43.780;25.948;2022-08-18T03:48:29;38.42;;;35.22;;
45274;SDS011;31019;43.780;25.948;2022-08-18T03:51:01;36.47;;;33.58;;
45274;SDS011;31019;43.780;25.948;2022-08-18T03:53:29;36.70;;;33.83;;
45274;SDS011;31019;43.780;25.948;2022-08-18T03:55:58;39.03;;;35.83;;
45274;SDS011;31019;43.780;25.948;2022-08-18T03:58:25;40.42;;;37.03;;
45274;SDS011;31019;43.780;25.948;2022-08-18T04:00:52;43.10;;;39.80;;
45274;SDS011;31019;43.780;25.948;2022-08-18T04:03:21;36.85;;;34.05;;
45274;SDS011;31019;43.780;25.948;2022-08-18T04:05:48;41.45;;;38.25;;
45274;SDS011;31019;43.780;25.948;2022-08-18T04:08:15;42.80;;;39.35;;
45274;SDS011;31019;43.780;25.948;2022-08-18T04:10:43;41.38;;;37.92;;
45274;SDS011;31019;43.780;25.948;2022-08-18T04:13:12;42.22;;;39.25;;
45274;SDS011;31019;43.780;25.948;2022-08-18T04:15:38;41.45;;;38.25;;
45274;SDS011;31019;43.780;25.948;2022-08-18T04:18:11;44.08;;;40.60;;
45274;SDS011;31019;43.780;25.948;2022-08-18T04:20:42;43.55;;;40.38;;
45274;SDS011;31019;43.780;25.948;2022-08-18T04:23:11;44.33;;;41.28;;
45274;SDS011;31019;43.780;25.948;2022-08-18T04:25:40;39.45;;;36.80;;
45274;SDS011;31019;43.780;25.948;2022-08-18T04:28:11;41.55;;;38.55;;
45274;SDS011;31019;43.780;25.948;2022-08-18T04:30:38;42.42;;;39.03;;
45274;SDS011;31019;43.780;25.948;2022-08-18T04:33:06;40.58;;;37.75;;
45274;SDS011;31019;43.780;25.948;2022-08-18T04:35:33;39.20;;;36.55;;
45274;SDS011;31019;43.780;25.948;2022-08-18T04:38:01;40.40;;;37.50;;
45274;SDS011;31019;43.780;25.948;2022-08-18T04:40:29;43.13;;;40.05;;
45274;SDS011;31019;43.780;25.948;2022-08-18T04:43:00;43.53;;;40.42;;
45274;SDS011;31019;43.780;25.948;2022-08-18T04:45:28;43.60;;;40.60;;
45274;SDS011;31019;43.780;25.948;2022-08-18T04:47:56;40.83;;;37.58;;
45274;SDS011;31019;43.780;25.948;2022-08-18T04:50:24;38.35;;;35.67;;
45274;SDS011;31019;43.780;25.948;2022-08-18T04:55:44;40.33;;;37.35;;
45274;SDS011;31019;43.780;25.948;2022-08-18T04:58:12;36.40;;;33.50;;
45274;SDS011;31019;43.780;25.948;2022-08-18T05:00:41;38.45;;;35.63;;
45274;SDS011;31019;43.780;25.948;2022-08-18T05:03:09;35.63;;;33.13;;
45274;SDS011;31019;43.780;25.948;2022-08-18T05:05:37;43.17;;;40.05;;
45274;SDS011;31019;43.780;25.948;2022-08-18T05:08:10;41.38;;;38.42;;
45274;SDS011;31019;43.780;25.948;2022-08-18T05:10:37;41.42;;;38.47;;
45274;SDS011;31019;43.780;25.948;2022-08-18T05:13:04;40.45;;;37.55;;
45274;SDS011;31019;43.780;25.948;2022-08-18T05:15:37;40.30;;;37.30;;
45274;SDS011;31019;43.780;25.948;2022-08-18T05:18:08;43.35;;;40.15;;
45274;SDS011;31019;43.780;25.948;2022-08-18T05:20:36;40.70;;;37.60;;
45274;SDS011;31019;43.780;25.948;2022-08-18T05:23:04;41.10;;;38.10;;
45274;SDS011;31019;43.780;25.948;2022-08-18T05:25:34;42.45;;;39.55;;
45274;SDS011;31019;43.780;25.948;2022-08-18T05:28:09;43.83;;;40.63;;
45274;SDS011;31019;43.780;25.948;2022-08-18T05:30:43;45.22;;;41.38;;
45274;SDS011;31019;43.780;25.948;2022-08-18T05:33:14;41.97;;;38.97;;
45274;SDS011;31019;43.780;25.948;2022-08-18T05:35:42;43.72;;;40.72;;
45274;SDS011;31019;43.780;25.948;2022-08-18T05:38:15;41.50;;;38.55;;
45274;SDS011;31019;43.780;25.948;2022-08-18T05:41:04;40.95;;;38.25;;
45274;SDS011;31019;43.780;25.948;2022-08-18T05:43:34;37.17;;;34.28;;
45274;SDS011;31019;43.780;25.948;2022-08-18T05:46:03;36.80;;;34.10;;
45274;SDS011;31019;43.780;25.948;2022-08-18T05:51:09;38.97;;;36.17;;
45274;SDS011;31019;43.780;25.948;2022-08-18T05:53:39;38.72;;;35.92;;
45274;SDS011;31019;43.780;25.948;2022-08-18T05:56:25;36.70;;;34.13;;
45274;SDS011;31019;43.780;25.948;2022-08-18T05:59:13;35.05;;;32.35;;
45274;SDS011;31019;43.780;25.948;2022-08-18T06:01:48;39.92;;;36.90;;
45274;SDS011;31019;43.780;25.948;2022-08-18T06:04:29;37.55;;;34.55;;
45274;SDS011;31019;43.780;25.948;2022-08-18T06:07:06;35.97;;;33.45;;
45274;SDS011;31019;43.780;25.948;2022-08-18T06:09:47;36.58;;;33.92;;
45274;SDS011;31019;43.780;25.948;2022-08-18T06:12:26;35.13;;;32.33;;
45274;SDS011;31019;43.780;25.948;2022-08-18T06:15:09;35.17;;;32.27;;
45274;SDS011;31019;43.780;25.948;2022-08-18T06:20:55;35.15;;;32.35;;
45274;SDS011;31019;43.780;25.948;2022-08-18T06:23:39;33.28;;;30.65;;
45274;SDS011;31019;43.780;25.948;2022-08-18T06:26:18;35.83;;;32.67;;
45274;SDS011;31019;43.780;25.948;2022-08-18T06:28:54;33.05;;;30.52;;
45274;SDS011;31019;43.780;25.948;2022-08-18T06:31:34;33.65;;;30.60;;
45274;SDS011;31019;43.780;25.948;2022-08-18T06:34:14;32.72;;;30.23;;
45274;SDS011;31019;43.780;25.948;2022-08-18T06:36:51;34.13;;;31.42;;
45274;SDS011;31019;43.780;25.948;2022-08-18T06:39:23;33.25;;;30.63;;
45274;SDS011;31019;43.780;25.948;2022-08-18T06:41:55;35.10;;;32.38;;
45274;SDS011;31019;43.780;25.948;2022-08-18T06:44:24;33.83;;;31.05;;
45274;SDS011;31019;43.780;25.948;2022-08-18T06:46:57;34.42;;;31.88;;
45274;SDS011;31019;43.780;25.948;2022-08-18T06:49:33;34.65;;;32.00;;
45274;SDS011;31019;43.780;25.948;2022-08-18T06:52:23;34.78;;;32.22;;
45274;SDS011;31019;43.780;25.948;2022-08-18T06:54:54;33.97;;;31.55;;
45274;SDS011;31019;43.780;25.948;2022-08-18T06:57:27;34.22;;;31.73;;
45274;SDS011;31019;43.780;25.948;2022-08-18T06:59:57;34.47;;;31.90;;
45274;SDS011;31019;43.780;25.948;2022-08-18T07:02:33;34.47;;;31.95;;
45274;SDS011;31019;43.780;25.948;2022-08-18T07:05:14;35.00;;;32.53;;
45274;SDS011;31019;43.780;25.948;2022-08-18T07:08:02;35.22;;;32.72;;
45274;SDS011;31019;43.780;25.948;2022-08-18T07:10:35;33.85;;;31.45;;
45274;SDS011;31019;43.780;25.948;2022-08-18T07:15:51;37.90;;;35.35;;
45274;SDS011;31019;43.780;25.948;2022-08-18T07:18:22;40.83;;;38.03;;
45274;SDS011;31019;43.780;25.948;2022-08-18T07:20:51;39.00;;;36.03;;
45274;SDS011;31019;43.780;25.948;2022-08-18T07:23:23;35.55;;;32.95;;
45274;SDS011;31019;43.780;25.948;2022-08-18T07:25:59;36.03;;;33.58;;
45274;SDS011;31019;43.780;25.948;2022-08-18T07:28:34;47.63;;;44.55;;
45274;SDS011;31019;43.780;25.948;2022-08-18T07:34:03;34.47;;;31.67;;
45274;SDS011;31019;43.780;25.948;2022-08-18T07:36:41;35.88;;;33.28;;
45274;SDS011;31019;43.780;25.948;2022-08-18T07:39:17;35.40;;;32.53;;
45274;SDS011;31019;43.780;25.948;2022-08-18T07:41:49;36.70;;;33.83;;
45274;SDS011;31019;43.780;25.948;2022-08-18T07:44:24;35.40;;;32.80;;
45274;SDS011;31019;43.780;25.948;2022-08-18T07:46:57;35.47;;;31.98;;
45274;SDS011;31019;43.780;25.948;2022-08-18T07:49:30;34.50;;;31.65;;
45274;SDS011;31019;43.780;25.948;2022-08-18T07:52:01;34.60;;;31.85;;
45274;SDS011;31019;43.780;25.948;2022-08-18T07:54:37;35.40;;;32.85;;
45274;SDS011;31019;43.780;25.948;2022-08-18T07:57:13;41.30;;;38.63;;
45274;SDS011;31019;43.780;25.948;2022-08-18T07:59:53;43.05;;;40.25;;
45274;SDS011;31019;43.780;25.948;2022-08-18T08:02:37;41.25;;;38.35;;
45274;SDS011;31019;43.780;25.948;2022-08-18T08:05:19;40.08;;;37.22;;
45274;SDS011;31019;43.780;25.948;2022-08-18T08:07:58;40.58;;;37.65;;
45274;SDS011;31019;43.780;25.948;2022-08-18T08:10:34;42.63;;;39.63;;
45274;SDS011;31019;43.780;25.948;2022-08-18T08:13:11;39.97;;;37.05;;
45274;SDS011;31019;43.780;25.948;2022-08-18T08:15:47;39.85;;;36.97;;
45274;SDS011;31019;43.780;25.948;2022-08-18T08:18:30;36.30;;;33.80;;
45274;SDS011;31019;43.780;25.948;2022-08-18T08:21:06;36.33;;;33.63;;
45274;SDS011;31019;43.780;25.948;2022-08-18T08:23:38;35.95;;;33.22;;
45274;SDS011;31019;43.780;25.948;2022-08-18T08:26:19;35.15;;;32.55;;
45274;SDS011;31019;43.780;25.948;2022-08-18T08:28:58;35.70;;;33.17;;
45274;SDS011;31019;43.780;25.948;2022-08-18T08:31:39;36.08;;;33.58;;
45274;SDS011;31019;43.780;25.948;2022-08-18T08:34:15;37.80;;;34.95;;
45274;SDS011;31019;43.780;25.948;2022-08-18T08:36:46;38.80;;;36.15;;
45274;SDS011;31019;43.780;25.948;2022-08-18T08:39:19;38.65;;;36.05;;
45274;SDS011;31019;43.780;25.948;2022-08-18T08:41:52;37.35;;;34.72;;
45274;SDS011;31019;43.780;25.948;2022-08-18T08:44:28;34.22;;;31.83;;
45274;SDS011;31019;43.780;25.948;2022-08-18T08:47:01;39.03;;;35.88;;
45274;SDS011;31019;43.780;25.948;2022-08-18T08:49:34;35.53;;;33.25;;
45274;SDS011;31019;43.780;25.948;2022-08-18T08:52:07;34.33;;;32.08;;
45274;SDS011;31019;43.780;25.948;2022-08-18T08:54:42;31.33;;;29.02;;
45274;SDS011;31019;43.780;25.948;2022-08-18T08:57:13;34.75;;;32.42;;
45274;SDS011;31019;43.780;25.948;2022-08-18T08:59:43;29.70;;;27.67;;
45274;SDS011;31019;43.780;25.948;2022-08-18T09:05:05;30.98;;;28.88;;
45274;SDS011;31019;43.780;25.948;2022-08-18T09:07:49;33.83;;;31.30;;
45274;SDS011;31019;43.780;25.948;2022-08-18T09:10:39;33.00;;;30.92;;
45274;SDS011;31019;43.780;25.948;2022-08-18T09:13:35;32.92;;;30.73;;
45274;SDS011;31019;43.780;25.948;2022-08-18T09:16:19;35.17;;;32.97;;
45274;SDS011;31019;43.780;25.948;2022-08-18T09:19:03;40.45;;;37.60;;
45274;SDS011;31019;43.780;25.948;2022-08-18T09:21:43;35.55;;;33.03;;
45274;SDS011;31019;43.780;25.948;2022-08-18T09:24:19;36.65;;;34.15;;
45274;SDS011;31019;43.780;25.948;2022-08-18T09:26:50;33.35;;;31.05;;
45274;SDS011;31019;43.780;25.948;2022-08-18T09:29:22;35.03;;;32.58;;
45274;SDS011;31019;43.780;25.948;2022-08-18T09:35:02;32.97;;;30.77;;
45274;SDS011;31019;43.780;25.948;2022-08-18T09:37:43;32.72;;;30.33;;
45274;SDS011;31019;43.780;25.948;2022-08-18T09:40:36;34.85;;;32.20;;
45274;SDS011;31019;43.780;25.948;2022-08-18T09:43:32;37.95;;;35.55;;
45274;SDS011;31019;43.780;25.948;2022-08-18T09:46:05;36.08;;;33.47;;
45274;SDS011;31019;43.780;25.948;2022-08-18T09:48:35;36.30;;;33.67;;
45274;SDS011;31019;43.780;25.948;2022-08-18T09:54:05;35.85;;;33.25;;
45274;SDS011;31019;43.780;25.948;2022-08-18T09:59:57;35.10;;;32.60;;
45274;SDS011;31019;43.780;25.948;2022-08-18T10:08:57;36.50;;;33.90;;
45274;SDS011;31019;43.780;25.948;2022-08-18T10:11:36;37.22;;;34.63;;
45274;SDS011;31019;43.780;25.948;2022-08-18T10:17:09;39.42;;;36.40;;
45274;SDS011;31019;43.780;25.948;2022-08-18T10:19:47;45.55;;;42.25;;
45274;SDS011;31019;43.780;25.948;2022-08-18T10:22:34;39.45;;;36.33;;
45274;SDS011;31019;43.780;25.948;2022-08-18T10:25:04;44.00;;;40.40;;
45274;SDS011;31019;43.780;25.948;2022-08-18T10:27:46;40.35;;;37.10;;
45274;SDS011;31019;43.780;25.948;2022-08-18T10:33:12;39.85;;;36.53;;
45274;SDS011;31019;43.780;25.948;2022-08-18T10:36:34;39.97;;;37.08;;
45274;SDS011;31019;43.780;25.948;2022-08-18T10:39:12;39.78;;;36.60;;
45274;SDS011;31019;43.780;25.948;2022-08-18T10:41:48;39.10;;;36.10;;
45274;SDS011;31019;43.780;25.948;2022-08-18T10:44:23;37.22;;;33.95;;
45274;SDS011;31019;43.780;25.948;2022-08-18T10:46:53;42.78;;;39.13;;
45274;SDS011;31019;43.780;25.948;2022-08-18T10:49:27;37.38;;;34.15;;
45274;SDS011;31019;43.780;25.948;2022-08-18T10:52:03;35.38;;;32.35;;
45274;SDS011;31019;43.780;25.948;2022-08-18T10:54:50;35.95;;;33.20;;
45274;SDS011;31019;43.780;25.948;2022-08-18T10:57:38;36.50;;;33.63;;
45274;SDS011;31019;43.780;25.948;2022-08-18T11:00:20;37.13;;;34.38;;
45274;SDS011;31019;43.780;25.948;2022-08-18T11:02:54;35.67;;;33.08;;
45274;SDS011;31019;43.780;25.948;2022-08-18T11:05:34;39.25;;;36.05;;
45274;SDS011;31019;43.780;25.948;2022-08-18T11:08:05;33.22;;;30.52;;
45274;SDS011;31019;43.780;25.948;2022-08-18T11:10:39;34.67;;;31.67;;
45274;SDS011;31019;43.780;25.948;2022-08-18T11:13:13;37.50;;;34.40;;
45274;SDS011;31019;43.780;25.948;2022-08-18T11:15:52;37.50;;;34.25;;
45274;SDS011;31019;43.780;25.948;2022-08-18T11:18:29;34.90;;;32.13;;
45274;SDS011;31019;43.780;25.948;2022-08-18T11:24:10;35.55;;;32.63;;
45274;SDS011;31019;43.780;25.948;2022-08-18T11:26:39;35.35;;;32.75;;
45274;SDS011;31019;43.780;25.948;2022-08-18T11:29:23;35.92;;;33.13;;
45274;SDS011;31019;43.780;25.948;2022-08-18T11:31:54;35.78;;;32.63;;
45274;SDS011;31019;43.780;25.948;2022-08-18T11:34:29;36.50;;;33.63;;
45274;SDS011;31019;43.780;25.948;2022-08-18T11:37:09;35.20;;;32.60;;
45274;SDS011;31019;43.780;25.948;2022-08-18T11:39:54;40.72;;;37.72;;
45274;SDS011;31019;43.780;25.948;2022-08-18T11:42:27;37.78;;;34.85;;
45274;SDS011;31019;43.780;25.948;2022-08-18T11:45:04;37.45;;;34.75;;
45274;SDS011;31019;43.780;25.948;2022-08-18T11:47:36;36.33;;;33.53;;
45274;SDS011;31019;43.780;25.948;2022-08-18T11:50:07;36.08;;;33.40;;
45274;SDS011;31019;43.780;25.948;2022-08-18T11:52:48;37.20;;;34.17;;
45274;SDS011;31019;43.780;25.948;2022-08-18T11:55:20;35.22;;;32.53;;
45274;SDS011;31019;43.780;25.948;2022-08-18T11:57:58;35.20;;;32.35;;
45274;SDS011;31019;43.780;25.948;2022-08-18T12:00:36;35.45;;;32.70;;
45274;SDS011;31019;43.780;25.948;2022-08-18T12:03:15;35.35;;;32.67;;
45274;SDS011;31019;43.780;25.948;2022-08-18T12:05:46;35.05;;;32.15;;
45274;SDS011;31019;43.780;25.948;2022-08-18T12:08:18;35.33;;;32.60;;
45274;SDS011;31019;43.780;25.948;2022-08-18T12:10:59;33.78;;;31.30;;
45274;SDS011;31019;43.780;25.948;2022-08-18T12:13:29;39.28;;;36.50;;
45274;SDS011;31019;43.780;25.948;2022-08-18T12:16:13;36.42;;;33.92;;
45274;SDS011;31019;43.780;25.948;2022-08-18T12:18:45;36.30;;;33.70;;
45274;SDS011;31019;43.780;25.948;2022-08-18T12:21:14;35.85;;;33.13;;
45274;SDS011;31019;43.780;25.948;2022-08-18T12:23:42;42.58;;;39.70;;
45274;SDS011;31019;43.780;25.948;2022-08-18T12:26:10;46.10;;;43.10;;
45274;SDS011;31019;43.780;25.948;2022-08-18T12:28:38;41.80;;;39.03;;
45274;SDS011;31019;43.780;25.948;2022-08-18T12:31:05;35.88;;;33.28;;
45274;SDS011;31019;43.780;25.948;2022-08-18T12:33:33;35.88;;;33.35;;
45274;SDS011;31019;43.780;25.948;2022-08-18T12:36:00;37.60;;;34.88;;
45274;SDS011;31019;43.780;25.948;2022-08-18T12:38:28;37.35;;;34.28;;
45274;SDS011;31019;43.780;25.948;2022-08-18T12:40:56;36.90;;;33.75;;
45274;SDS011;31019;43.780;25.948;2022-08-18T12:43:25;37.83;;;34.70;;
45274;SDS011;31019;43.780;25.948;2022-08-18T12:45:58;34.60;;;32.00;;
45274;SDS011;31019;43.780;25.948;2022-08-18T12:48:26;33.55;;;30.75;;
45274;SDS011;31019;43.780;25.948;2022-08-18T12:50:55;34.95;;;31.98;;
45274;SDS011;31019;43.780;25.948;2022-08-18T12:53:24;35.47;;;32.47;;
45274;SDS011;31019;43.780;25.948;2022-08-18T12:55:51;34.65;;;32.15;;
45274;SDS011;31019;43.780;25.948;2022-08-18T12:58:18;35.00;;;32.30;;
45274;SDS011;31019;43.780;25.948;2022-08-18T13:00:46;33.00;;;30.50;;
45274;SDS011;31019;43.780;25.948;2022-08-18T13:03:13;33.92;;;31.45;;
45274;SDS011;31019;43.780;25.948;2022-08-18T13:05:41;33.00;;;30.60;;
45274;SDS011;31019;43.780;25.948;2022-08-18T13:08:11;33.38;;;30.98;;
45274;SDS011;31019;43.780;25.948;2022-08-18T13:10:42;35.33;;;32.40;;
45274;SDS011;31019;43.780;25.948;2022-08-18T13:13:09;34.00;;;31.40;;
45274;SDS011;31019;43.780;25.948;2022-08-18T13:15:35;34.58;;;31.92;;
45274;SDS011;31019;43.780;25.948;2022-08-18T13:18:04;35.70;;;32.90;;
45274;SDS011;31019;43.780;25.948;2022-08-18T13:20:37;36.10;;;33.35;;
45274;SDS011;31019;43.780;25.948;2022-08-18T13:23:04;34.67;;;32.05;;
45274;SDS011;31019;43.780;25.948;2022-08-18T13:25:31;34.55;;;31.95;;
45274;SDS011;31019;43.780;25.948;2022-08-18T13:27:58;37.03;;;34.22;;
45274;SDS011;31019;43.780;25.948;2022-08-18T13:30:25;34.13;;;31.42;;
45274;SDS011;31019;43.780;25.948;2022-08-18T13:32:52;35.08;;;32.33;;
45274;SDS011;31019;43.780;25.948;2022-08-18T13:35:20;34.85;;;32.10;;
45274;SDS011;31019;43.780;25.948;2022-08-18T13:37:47;32.58;;;29.80;;
45274;SDS011;31019;43.780;25.948;2022-08-18T13:40:22;38.88;;;35.97;;
45274;SDS011;31019;43.780;25.948;2022-08-18T13:45:21;35.65;;;32.95;;
45274;SDS011;31019;43.780;25.948;2022-08-18T13:47:50;35.10;;;32.40;;
45274;SDS011;31019;43.780;25.948;2022-08-18T13:50:18;34.83;;;31.75;;
45274;SDS011;31019;43.780;25.948;2022-08-18T13:52:46;35.08;;;32.30;;
45274;SDS011;31019;43.780;25.948;2022-08-18T13:55:15;34.80;;;32.20;;
45274;SDS011;31019;43.780;25.948;2022-08-18T13:57:50;36.85;;;33.90;;
45274;SDS011;31019;43.780;25.948;2022-08-18T14:00:19;36.00;;;32.95;;
45274;SDS011;31019;43.780;25.948;2022-08-18T14:02:50;36.63;;;33.45;;
45274;SDS011;31019;43.780;25.948;2022-08-18T14:05:21;35.47;;;32.20;;
45274;SDS011;31019;43.780;25.948;2022-08-18T14:07:49;35.05;;;32.25;;
45274;SDS011;31019;43.780;25.948;2022-08-18T14:10:16;37.78;;;34.97;;
45274;SDS011;31019;43.780;25.948;2022-08-18T14:12:43;39.42;;;36.65;;
45274;SDS011;31019;43.780;25.948;2022-08-18T14:15:12;40.55;;;36.60;;
45274;SDS011;31019;43.780;25.948;2022-08-18T14:17:41;42.08;;;38.88;;
45274;SDS011;31019;43.780;25.948;2022-08-18T14:20:08;40.20;;;37.30;;
45274;SDS011;31019;43.780;25.948;2022-08-18T14:22:57;44.92;;;39.38;;
45274;SDS011;31019;43.780;25.948;2022-08-18T14:25:42;40.13;;;36.88;;
45274;SDS011;31019;43.780;25.948;2022-08-18T14:28:26;39.72;;;36.97;;
45274;SDS011;31019;43.780;25.948;2022-08-18T14:30:54;41.53;;;38.50;;
45274;SDS011;31019;43.780;25.948;2022-08-18T14:33:30;41.53;;;38.45;;
45274;SDS011;31019;43.780;25.948;2022-08-18T14:35:57;39.90;;;36.80;;
45274;SDS011;31019;43.780;25.948;2022-08-18T14:38:27;44.47;;;41.28;;
45274;SDS011;31019;43.780;25.948;2022-08-18T14:40:54;41.28;;;38.08;;
45274;SDS011;31019;43.780;25.948;2022-08-18T14:43:31;40.20;;;36.08;;
45274;SDS011;31019;43.780;25.948;2022-08-18T14:46:02;37.90;;;35.20;;
45274;SDS011;31019;43.780;25.948;2022-08-18T14:48:30;38.33;;;35.45;;
45274;SDS011;31019;43.780;25.948;2022-08-18T14:50:58;37.72;;;34.85;;
45274;SDS011;31019;43.780;25.948;2022-08-18T14:53:29;37.40;;;34.53;;
45274;SDS011;31019;43.780;25.948;2022-08-18T14:56:00;35.20;;;32.40;;
45274;SDS011;31019;43.780;25.948;2022-08-18T14:58:28;33.70;;;31.10;;
45274;SDS011;31019;43.780;25.948;2022-08-18T15:00:59;37.53;;;34.72;;
45274;SDS011;31019;43.780;25.948;2022-08-18T15:03:30;37.95;;;35.17;;
45274;SDS011;31019;43.780;25.948;2022-08-18T15:05:57;37.83;;;34.63;;
45274;SDS011;31019;43.780;25.948;2022-08-18T15:08:26;36.90;;;34.10;;
45274;SDS011;31019;43.780;25.948;2022-08-18T15:10:55;38.25;;;35.60;;
45274;SDS011;31019;43.780;25.948;2022-08-18T15:13:22;37.13;;;34.40;;
45274;SDS011;31019;43.780;25.948;2022-08-18T15:15:50;36.03;;;32.70;;
45274;SDS011;31019;43.780;25.948;2022-08-18T15:18:18;37.35;;;34.55;;
45274;SDS011;31019;43.780;25.948;2022-08-18T15:20:46;37.42;;;34.15;;
45274;SDS011;31019;43.780;25.948;2022-08-18T15:23:32;36.85;;;33.85;;
45274;SDS011;31019;43.780;25.948;2022-08-18T15:26:17;35.45;;;32.85;;
45274;SDS011;31019;43.780;25.948;2022-08-18T15:28:50;37.50;;;34.35;;